sensor_id;sensor_type;location;lat;lon;timestamp;temperature;humidity
26537;DHT22;14204;51.262;5.488;2023-07-16T00:02:03;21.40;99.90
26537;DHT22;14204;51.262;5.488;2023-07-16T00:04:28;21.40;99.90
26537;DHT22;14204;51.262;5.488;2023-07-16T00:06:54;21.40;99.90
26537;DHT22;14204;51.262;5.488;2023-07-16T00:09:19;21.40;99.90
26537;DHT22;14204;51.262;5.488;2023-07-16T00:11:45;21.40;99.90
26537;DHT22;14204;51.262;5.488;2023-07-16T00:14:11;21.40;99.90
26537;DHT22;14204;51.262;5.488;2023-07-16T00:16:37;21.40;99.90
26537;DHT22;14204;51.262;5.488;2023-07-16T00:19:03;21.30;99.90
26537;DHT22;14204;51.262;5.488;2023-07-16T00:21:29;21.30;99.90
26537;DHT22;14204;51.262;5.488;2023-07-16T00:23:54;21.30;99.90
26537;DHT22;14204;51.262;5.488;2023-07-16T00:26:21;21.30;99.90
26537;DHT22;14204;51.262;5.488;2023-07-16T00:28:47;21.30;99.90
26537;DHT22;14204;51.262;5.488;2023-07-16T00:31:13;21.30;99.90
26537;DHT22;14204;51.262;5.488;2023-07-16T00:33:38;21.20;99.90
26537;DHT22;14204;51.262;5.488;2023-07-16T00:36:04;21.20;99.90
26537;DHT22;14204;51.262;5.488;2023-07-16T00:38:29;21.10;99.90
26537;DHT22;14204;51.262;5.488;2023-07-16T00:40:56;21.10;99.90
26537;DHT22;14204;51.262;5.488;2023-07-16T00:43:22;21.10;99.90
26537;DHT22;14204;51.262;5.488;2023-07-16T00:45:48;21.10;99.90
26537;DHT22;14204;51.262;5.488;2023-07-16T00:48:15;21.00;99.90
26537;DHT22;14204;51.262;5.488;2023-07-16T00:50:41;21.00;99.90
26537;DHT22;14204;51.262;5.488;2023-07-16T00:53:10;21.00;99.90
26537;DHT22;14204;51.262;5.488;2023-07-16T00:55:37;20.90;99.90
26537;DHT22;14204;51.262;5.488;2023-07-16T00:58:06;20.90;99.90
26537;DHT22;14204;51.262;5.488;2023-07-16T01:00:34;20.80;99.90
26537;DHT22;14204;51.262;5.488;2023-07-16T01:03:01;20.80;99.90
26537;DHT22;14204;51.262;5.488;2023-07-16T01:05:34;20.80;99.90
26537;DHT22;14204;51.262;5.488;2023-07-16T01:08:04;20.80;99.90
26537;DHT22;14204;51.262;5.488;2023-07-16T01:10:32;20.70;99.90
26537;DHT22;14204;51.262;5.488;2023-07-16T01:12:58;20.70;99.90
26537;DHT22;14204;51.262;5.488;2023-07-16T01:15:24;20.70;99.90
26537;DHT22;14204;51.262;5.488;2023-07-16T01:17:50;20.70;99.90
26537;DHT22;14204;51.262;5.488;2023-07-16T01:20:16;20.60;99.90
26537;DHT22;14204;51.262;5.488;2023-07-16T01:22:46;20.60;99.90
26537;DHT22;14204;51.262;5.488;2023-07-16T01:30:29;20.50;99.90
26537;DHT22;14204;51.262;5.488;2023-07-16T01:32:56;20.50;99.90
26537;DHT22;14204;51.262;5.488;2023-07-16T01:35:23;20.50;99.90
26537;DHT22;14204;51.262;5.488;2023-07-16T01:37:48;20.50;99.90
26537;DHT22;14204;51.262;5.488;2023-07-16T01:40:14;20.40;99.90
26537;DHT22;14204;51.262;5.488;2023-07-16T01:42:40;20.40;99.90
26537;DHT22;14204;51.262;5.488;2023-07-16T01:45:06;20.40;99.90
26537;DHT22;14204;51.262;5.488;2023-07-16T01:50:03;20.30;99.90
26537;DHT22;14204;51.262;5.488;2023-07-16T01:52:29;20.30;99.90
26537;DHT22;14204;51.262;5.488;2023-07-16T01:54:54;20.30;99.90
26537;DHT22;14204;51.262;5.488;2023-07-16T01:57:20;20.20;99.90
26537;DHT22;14204;51.262;5.488;2023-07-16T01:59:46;20.20;99.90
26537;DHT22;14204;51.262;5.488;2023-07-16T02:02:12;20.10;99.90
26537;DHT22;14204;51.262;5.488;2023-07-16T02:04:37;20.10;99.90
26537;DHT22;14204;51.262;5.488;2023-07-16T02:07:03;20.10;99.90
26537;DHT22;14204;51.262;5.488;2023-07-16T02:09:29;20.10;99.90
26537;DHT22;14204;51.262;5.488;2023-07-16T02:11:55;20.00;99.90
26537;DHT22;14204;51.262;5.488;2023-07-16T02:14:20;20.00;99.90
26537;DHT22;14204;51.262;5.488;2023-07-16T02:16:46;19.90;99.90
26537;DHT22;14204;51.262;5.488;2023-07-16T02:19:12;19.90;99.90
26537;DHT22;14204;51.262;5.488;2023-07-16T02:21:37;19.70;99.90
26537;DHT22;14204;51.262;5.488;2023-07-16T02:24:03;19.70;99.90
26537;DHT22;14204;51.262;5.488;2023-07-16T02:26:29;19.70;99.90
26537;DHT22;14204;51.262;5.488;2023-07-16T02:28:54;19.70;99.90
26537;DHT22;14204;51.262;5.488;2023-07-16T02:31:20;19.60;99.90
26537;DHT22;14204;51.262;5.488;2023-07-16T02:33:46;19.50;99.90
26537;DHT22;14204;51.262;5.488;2023-07-16T02:36:11;19.50;99.90
26537;DHT22;14204;51.262;5.488;2023-07-16T02:38:37;19.30;99.90
26537;DHT22;14204;51.262;5.488;2023-07-16T02:41:03;19.40;99.90
26537;DHT22;14204;51.262;5.488;2023-07-16T02:43:29;19.40;99.90
26537;DHT22;14204;51.262;5.488;2023-07-16T02:45:54;19.30;99.90
26537;DHT22;14204;51.262;5.488;2023-07-16T02:48:20;19.30;99.90
26537;DHT22;14204;51.262;5.488;2023-07-16T02:50:46;19.30;99.90
26537;DHT22;14204;51.262;5.488;2023-07-16T02:53:11;19.10;99.90
26537;DHT22;14204;51.262;5.488;2023-07-16T02:55:37;19.20;99.90
26537;DHT22;14204;51.262;5.488;2023-07-16T02:58:03;19.20;99.90
26537;DHT22;14204;51.262;5.488;2023-07-16T03:00:32;19.20;99.90
26537;DHT22;14204;51.262;5.488;2023-07-16T03:02:59;19.30;99.90
26537;DHT22;14204;51.262;5.488;2023-07-16T03:05:26;19.20;99.90
26537;DHT22;14204;51.262;5.488;2023-07-16T03:07:51;19.20;99.90
26537;DHT22;14204;51.262;5.488;2023-07-16T03:10:17;19.20;99.90
26537;DHT22;14204;51.262;5.488;2023-07-16T03:12:43;19.20;99.90
26537;DHT22;14204;51.262;5.488;2023-07-16T03:15:09;19.10;99.90
26537;DHT22;14204;51.262;5.488;2023-07-16T03:17:35;19.10;99.90
26537;DHT22;14204;51.262;5.488;2023-07-16T03:20:01;18.90;99.90
26537;DHT22;14204;51.262;5.488;2023-07-16T03:22:26;19.00;99.90
26537;DHT22;14204;51.262;5.488;2023-07-16T03:24:52;18.90;99.90
26537;DHT22;14204;51.262;5.488;2023-07-16T03:27:18;18.80;99.90
26537;DHT22;14204;51.262;5.488;2023-07-16T03:29:43;18.70;99.90
26537;DHT22;14204;51.262;5.488;2023-07-16T03:32:09;18.70;99.90
26537;DHT22;14204;51.262;5.488;2023-07-16T03:34:35;18.70;99.90
26537;DHT22;14204;51.262;5.488;2023-07-16T03:37:00;18.70;99.90
26537;DHT22;14204;51.262;5.488;2023-07-16T03:39:26;18.70;99.90
26537;DHT22;14204;51.262;5.488;2023-07-16T03:41:51;18.70;99.90
26537;DHT22;14204;51.262;5.488;2023-07-16T03:44:17;18.60;99.90
26537;DHT22;14204;51.262;5.488;2023-07-16T03:46:43;18.50;99.90
26537;DHT22;14204;51.262;5.488;2023-07-16T03:49:08;18.50;99.90
26537;DHT22;14204;51.262;5.488;2023-07-16T03:51:34;18.50;99.90
26537;DHT22;14204;51.262;5.488;2023-07-16T03:54:00;18.50;99.90
26537;DHT22;14204;51.262;5.488;2023-07-16T03:56:26;18.50;99.90
26537;DHT22;14204;51.262;5.488;2023-07-16T03:58:51;18.40;99.90
26537;DHT22;14204;51.262;5.488;2023-07-16T04:01:17;18.20;99.90
26537;DHT22;14204;51.262;5.488;2023-07-16T04:03:42;18.30;99.90
26537;DHT22;14204;51.262;5.488;2023-07-16T04:06:09;18.30;99.90
26537;DHT22;14204;51.262;5.488;2023-07-16T04:08:36;18.20;99.90
26537;DHT22;14204;51.262;5.488;2023-07-16T04:11:03;18.10;99.90
26537;DHT22;14204;51.262;5.488;2023-07-16T04:13:29;18.20;99.90
26537;DHT22;14204;51.262;5.488;2023-07-16T04:15:55;18.20;99.90
26537;DHT22;14204;51.262;5.488;2023-07-16T04:18:23;18.10;99.90
26537;DHT22;14204;51.262;5.488;2023-07-16T04:20:49;18.10;99.90
26537;DHT22;14204;51.262;5.488;2023-07-16T04:23:15;18.10;99.90
26537;DHT22;14204;51.262;5.488;2023-07-16T04:25:40;18.10;99.90
26537;DHT22;14204;51.262;5.488;2023-07-16T04:28:06;18.10;99.90
26537;DHT22;14204;51.262;5.488;2023-07-16T04:30:32;18.10;99.90
26537;DHT22;14204;51.262;5.488;2023-07-16T04:32:57;17.90;99.90
26537;DHT22;14204;51.262;5.488;2023-07-16T04:35:23;18.00;99.90
26537;DHT22;14204;51.262;5.488;2023-07-16T04:37:49;17.90;99.90
26537;DHT22;14204;51.262;5.488;2023-07-16T04:40:14;17.80;99.90
26537;DHT22;14204;51.262;5.488;2023-07-16T04:42:40;17.80;99.90
26537;DHT22;14204;51.262;5.488;2023-07-16T04:45:06;17.80;99.90
26537;DHT22;14204;51.262;5.488;2023-07-16T04:47:32;17.80;99.90
26537;DHT22;14204;51.262;5.488;2023-07-16T04:49:58;17.80;99.90
26537;DHT22;14204;51.262;5.488;2023-07-16T04:52:24;17.70;99.90
26537;DHT22;14204;51.262;5.488;2023-07-16T04:54:50;17.70;99.90
26537;DHT22;14204;51.262;5.488;2023-07-16T04:57:15;17.70;99.90
26537;DHT22;14204;51.262;5.488;2023-07-16T04:59:41;17.60;99.90
26537;DHT22;14204;51.262;5.488;2023-07-16T05:02:07;17.70;99.90
26537;DHT22;14204;51.262;5.488;2023-07-16T05:04:36;17.70;99.90
26537;DHT22;14204;51.262;5.488;2023-07-16T05:07:02;17.70;99.90
26537;DHT22;14204;51.262;5.488;2023-07-16T05:09:28;17.80;99.90
26537;DHT22;14204;51.262;5.488;2023-07-16T05:11:54;17.70;99.90
26537;DHT22;14204;51.262;5.488;2023-07-16T05:14:20;17.70;99.90
26537;DHT22;14204;51.262;5.488;2023-07-16T05:16:45;17.60;99.90
26537;DHT22;14204;51.262;5.488;2023-07-16T05:19:11;17.70;99.90
26537;DHT22;14204;51.262;5.488;2023-07-16T05:21:37;17.70;99.90
26537;DHT22;14204;51.262;5.488;2023-07-16T05:24:03;17.80;99.90
26537;DHT22;14204;51.262;5.488;2023-07-16T05:26:29;17.80;99.90
26537;DHT22;14204;51.262;5.488;2023-07-16T05:28:55;17.80;99.90
26537;DHT22;14204;51.262;5.488;2023-07-16T05:31:21;17.70;99.90
26537;DHT22;14204;51.262;5.488;2023-07-16T05:33:47;17.60;99.90
26537;DHT22;14204;51.262;5.488;2023-07-16T05:36:12;17.70;99.90
26537;DHT22;14204;51.262;5.488;2023-07-16T05:38:38;17.70;99.90
26537;DHT22;14204;51.262;5.488;2023-07-16T05:41:04;17.60;99.90
26537;DHT22;14204;51.262;5.488;2023-07-16T05:43:30;17.60;99.90
26537;DHT22;14204;51.262;5.488;2023-07-16T05:45:56;17.70;99.90
26537;DHT22;14204;51.262;5.488;2023-07-16T05:48:23;17.70;99.90
26537;DHT22;14204;51.262;5.488;2023-07-16T05:50:49;17.70;99.90
26537;DHT22;14204;51.262;5.488;2023-07-16T05:53:14;17.70;99.90
26537;DHT22;14204;51.262;5.488;2023-07-16T05:55:40;17.70;99.90
26537;DHT22;14204;51.262;5.488;2023-07-16T05:58:06;17.80;99.90
26537;DHT22;14204;51.262;5.488;2023-07-16T06:00:31;17.80;99.90
26537;DHT22;14204;51.262;5.488;2023-07-16T06:02:57;17.70;99.90
26537;DHT22;14204;51.262;5.488;2023-07-16T06:05:23;17.70;99.90
26537;DHT22;14204;51.262;5.488;2023-07-16T06:07:50;17.80;99.90
26537;DHT22;14204;51.262;5.488;2023-07-16T06:10:16;17.80;99.90
26537;DHT22;14204;51.262;5.488;2023-07-16T06:12:41;17.90;99.90
26537;DHT22;14204;51.262;5.488;2023-07-16T06:15:07;17.90;99.90
26537;DHT22;14204;51.262;5.488;2023-07-16T06:17:33;17.90;99.90
26537;DHT22;14204;51.262;5.488;2023-07-16T06:19:59;17.90;99.90
26537;DHT22;14204;51.262;5.488;2023-07-16T06:22:25;17.90;99.90
26537;DHT22;14204;51.262;5.488;2023-07-16T06:24:50;17.90;99.90
26537;DHT22;14204;51.262;5.488;2023-07-16T06:27:16;17.90;99.90
26537;DHT22;14204;51.262;5.488;2023-07-16T06:29:41;18.00;99.90
26537;DHT22;14204;51.262;5.488;2023-07-16T06:32:07;18.00;99.90
26537;DHT22;14204;51.262;5.488;2023-07-16T06:34:33;18.00;99.90
26537;DHT22;14204;51.262;5.488;2023-07-16T06:36:59;18.10;99.90
26537;DHT22;14204;51.262;5.488;2023-07-16T06:39:25;18.10;99.90
26537;DHT22;14204;51.262;5.488;2023-07-16T06:41:51;18.30;99.90
26537;DHT22;14204;51.262;5.488;2023-07-16T06:44:17;18.30;99.90
26537;DHT22;14204;51.262;5.488;2023-07-16T06:46:42;18.30;99.90
26537;DHT22;14204;51.262;5.488;2023-07-16T06:49:08;18.30;99.90
26537;DHT22;14204;51.262;5.488;2023-07-16T06:51:34;18.30;99.90
26537;DHT22;14204;51.262;5.488;2023-07-16T06:54:00;18.30;99.90
26537;DHT22;14204;51.262;5.488;2023-07-16T06:56:25;18.40;99.90
26537;DHT22;14204;51.262;5.488;2023-07-16T06:58:51;18.50;99.90
26537;DHT22;14204;51.262;5.488;2023-07-16T07:01:17;18.60;99.90
26537;DHT22;14204;51.262;5.488;2023-07-16T07:03:42;18.80;99.90
26537;DHT22;14204;51.262;5.488;2023-07-16T07:06:08;18.80;99.90
26537;DHT22;14204;51.262;5.488;2023-07-16T07:08:36;18.90;99.90
26537;DHT22;14204;51.262;5.488;2023-07-16T07:11:03;19.10;99.90
26537;DHT22;14204;51.262;5.488;2023-07-16T07:13:29;19.10;99.90
26537;DHT22;14204;51.262;5.488;2023-07-16T07:15:55;19.20;99.90
26537;DHT22;14204;51.262;5.488;2023-07-16T07:18:21;19.30;99.90
26537;DHT22;14204;51.262;5.488;2023-07-16T07:20:47;19.40;99.90
26537;DHT22;14204;51.262;5.488;2023-07-16T07:23:13;19.40;99.90
26537;DHT22;14204;51.262;5.488;2023-07-16T07:25:39;19.50;99.90
26537;DHT22;14204;51.262;5.488;2023-07-16T07:28:04;19.60;99.90
26537;DHT22;14204;51.262;5.488;2023-07-16T07:30:30;19.70;99.90
26537;DHT22;14204;51.262;5.488;2023-07-16T07:32:56;19.80;99.90
26537;DHT22;14204;51.262;5.488;2023-07-16T07:35:22;19.90;99.90
26537;DHT22;14204;51.262;5.488;2023-07-16T07:37:47;20.00;99.90
26537;DHT22;14204;51.262;5.488;2023-07-16T07:40:13;20.00;99.90
26537;DHT22;14204;51.262;5.488;2023-07-16T07:42:39;20.10;99.90
26537;DHT22;14204;51.262;5.488;2023-07-16T07:45:05;20.20;99.90
26537;DHT22;14204;51.262;5.488;2023-07-16T07:47:31;20.20;99.90
26537;DHT22;14204;51.262;5.488;2023-07-16T07:49:57;20.30;99.90
26537;DHT22;14204;51.262;5.488;2023-07-16T07:52:22;20.30;99.90
26537;DHT22;14204;51.262;5.488;2023-07-16T07:54:48;20.20;99.90
26537;DHT22;14204;51.262;5.488;2023-07-16T07:57:14;20.30;99.90
26537;DHT22;14204;51.262;5.488;2023-07-16T07:59:40;20.30;99.90
26537;DHT22;14204;51.262;5.488;2023-07-16T08:02:06;20.30;99.90
26537;DHT22;14204;51.262;5.488;2023-07-16T08:04:31;20.60;99.90
26537;DHT22;14204;51.262;5.488;2023-07-16T08:07:00;20.70;99.90
26537;DHT22;14204;51.262;5.488;2023-07-16T08:09:26;20.80;99.90
26537;DHT22;14204;51.262;5.488;2023-07-16T08:11:52;20.80;99.90
26537;DHT22;14204;51.262;5.488;2023-07-16T08:14:18;20.70;99.90
26537;DHT22;14204;51.262;5.488;2023-07-16T08:16:43;20.90;99.90
26537;DHT22;14204;51.262;5.488;2023-07-16T08:19:09;21.00;99.90
26537;DHT22;14204;51.262;5.488;2023-07-16T08:21:35;21.00;99.90
26537;DHT22;14204;51.262;5.488;2023-07-16T08:24:06;21.20;99.90
26537;DHT22;14204;51.262;5.488;2023-07-16T08:26:32;21.20;99.90
26537;DHT22;14204;51.262;5.488;2023-07-16T08:28:58;21.40;99.90
26537;DHT22;14204;51.262;5.488;2023-07-16T08:31:24;21.40;99.90
26537;DHT22;14204;51.262;5.488;2023-07-16T08:33:50;21.40;99.90
26537;DHT22;14204;51.262;5.488;2023-07-16T08:36:16;21.60;99.90
26537;DHT22;14204;51.262;5.488;2023-07-16T08:38:42;21.70;99.90
26537;DHT22;14204;51.262;5.488;2023-07-16T08:41:07;21.90;99.90
26537;DHT22;14204;51.262;5.488;2023-07-16T08:43:33;22.00;99.90
26537;DHT22;14204;51.262;5.488;2023-07-16T08:46:01;22.10;99.90
26537;DHT22;14204;51.262;5.488;2023-07-16T08:48:28;22.10;99.90
26537;DHT22;14204;51.262;5.488;2023-07-16T08:50:55;22.20;99.90
26537;DHT22;14204;51.262;5.488;2023-07-16T08:53:22;22.30;99.90
26537;DHT22;14204;51.262;5.488;2023-07-16T08:55:48;22.60;99.90
26537;DHT22;14204;51.262;5.488;2023-07-16T08:58:14;22.60;99.90
26537;DHT22;14204;51.262;5.488;2023-07-16T09:00:49;22.80;99.90
26537;DHT22;14204;51.262;5.488;2023-07-16T09:03:16;22.80;99.90
26537;DHT22;14204;51.262;5.488;2023-07-16T09:05:44;22.80;99.90
26537;DHT22;14204;51.262;5.488;2023-07-16T09:08:10;22.80;99.90
26537;DHT22;14204;51.262;5.488;2023-07-16T09:10:36;22.90;99.90
26537;DHT22;14204;51.262;5.488;2023-07-16T09:13:02;22.90;99.90
26537;DHT22;14204;51.262;5.488;2023-07-16T09:15:29;22.90;99.90
26537;DHT22;14204;51.262;5.488;2023-07-16T09:17:55;23.10;99.90
26537;DHT22;14204;51.262;5.488;2023-07-16T09:20:21;23.30;99.90
26537;DHT22;14204;51.262;5.488;2023-07-16T09:22:49;23.40;99.90
26537;DHT22;14204;51.262;5.488;2023-07-16T09:25:15;23.60;99.90
26537;DHT22;14204;51.262;5.488;2023-07-16T09:27:41;23.60;99.90
26537;DHT22;14204;51.262;5.488;2023-07-16T09:30:14;23.40;99.90
26537;DHT22;14204;51.262;5.488;2023-07-16T09:32:40;23.30;99.90
26537;DHT22;14204;51.262;5.488;2023-07-16T09:35:15;23.40;99.90
26537;DHT22;14204;51.262;5.488;2023-07-16T09:37:41;23.30;99.90
26537;DHT22;14204;51.262;5.488;2023-07-16T09:40:09;23.40;99.90
26537;DHT22;14204;51.262;5.488;2023-07-16T09:42:42;23.50;99.90
26537;DHT22;14204;51.262;5.488;2023-07-16T09:45:16;23.60;99.90
26537;DHT22;14204;51.262;5.488;2023-07-16T09:47:42;23.60;99.90
26537;DHT22;14204;51.262;5.488;2023-07-16T09:50:09;23.40;99.90
26537;DHT22;14204;51.262;5.488;2023-07-16T09:52:34;23.30;99.90
26537;DHT22;14204;51.262;5.488;2023-07-16T09:55:03;23.10;99.90
26537;DHT22;14204;51.262;5.488;2023-07-16T09:57:35;23.40;99.90
26537;DHT22;14204;51.262;5.488;2023-07-16T10:00:05;23.60;99.90
26537;DHT22;14204;51.262;5.488;2023-07-16T10:02:36;23.50;99.90
26537;DHT22;14204;51.262;5.488;2023-07-16T10:05:19;23.40;99.90
26537;DHT22;14204;51.262;5.488;2023-07-16T10:07:52;23.20;99.90
26537;DHT22;14204;51.262;5.488;2023-07-16T10:10:18;23.20;99.90
26537;DHT22;14204;51.262;5.488;2023-07-16T10:13:01;23.10;99.90
26537;DHT22;14204;51.262;5.488;2023-07-16T10:15:28;23.00;99.90
26537;DHT22;14204;51.262;5.488;2023-07-16T10:17:55;23.20;99.90
26537;DHT22;14204;51.262;5.488;2023-07-16T10:20:36;22.90;99.90
26537;DHT22;14204;51.262;5.488;2023-07-16T10:23:15;22.90;99.90
26537;DHT22;14204;51.262;5.488;2023-07-16T10:25:58;23.20;99.90
26537;DHT22;14204;51.262;5.488;2023-07-16T10:28:24;23.40;99.90
26537;DHT22;14204;51.262;5.488;2023-07-16T10:30:50;23.50;99.90
26537;DHT22;14204;51.262;5.488;2023-07-16T10:33:16;23.60;99.90
26537;DHT22;14204;51.262;5.488;2023-07-16T10:35:44;23.60;99.90
26537;DHT22;14204;51.262;5.488;2023-07-16T10:38:10;23.60;99.90
26537;DHT22;14204;51.262;5.488;2023-07-16T10:40:46;23.60;99.90
26537;DHT22;14204;51.262;5.488;2023-07-16T10:43:12;23.30;99.90
26537;DHT22;14204;51.262;5.488;2023-07-16T10:45:38;23.20;99.90
26537;DHT22;14204;51.262;5.488;2023-07-16T10:48:04;23.20;99.90
26537;DHT22;14204;51.262;5.488;2023-07-16T10:50:34;23.10;99.90
26537;DHT22;14204;51.262;5.488;2023-07-16T10:53:00;23.10;99.90
26537;DHT22;14204;51.262;5.488;2023-07-16T10:55:28;23.20;99.90
26537;DHT22;14204;51.262;5.488;2023-07-16T10:57:54;23.30;99.90
26537;DHT22;14204;51.262;5.488;2023-07-16T11:00:21;23.40;99.90
26537;DHT22;14204;51.262;5.488;2023-07-16T11:02:50;23.40;99.90
26537;DHT22;14204;51.262;5.488;2023-07-16T11:05:17;23.30;99.90
26537;DHT22;14204;51.262;5.488;2023-07-16T11:07:45;23.00;99.90
26537;DHT22;14204;51.262;5.488;2023-07-16T11:10:11;23.00;99.90
26537;DHT22;14204;51.262;5.488;2023-07-16T11:12:36;23.10;99.90
26537;DHT22;14204;51.262;5.488;2023-07-16T11:15:03;23.10;99.90
26537;DHT22;14204;51.262;5.488;2023-07-16T11:17:29;23.10;99.90
26537;DHT22;14204;51.262;5.488;2023-07-16T11:19:55;23.10;99.90
26537;DHT22;14204;51.262;5.488;2023-07-16T11:22:25;23.20;99.90
26537;DHT22;14204;51.262;5.488;2023-07-16T11:24:55;23.10;99.90
26537;DHT22;14204;51.262;5.488;2023-07-16T11:27:25;23.20;99.90
26537;DHT22;14204;51.262;5.488;2023-07-16T11:29:56;23.20;99.90
26537;DHT22;14204;51.262;5.488;2023-07-16T11:32:42;23.20;99.90
26537;DHT22;14204;51.262;5.488;2023-07-16T11:35:15;23.10;99.90
26537;DHT22;14204;51.262;5.488;2023-07-16T11:37:41;23.10;99.90
26537;DHT22;14204;51.262;5.488;2023-07-16T11:40:09;23.20;99.90
26537;DHT22;14204;51.262;5.488;2023-07-16T11:42:39;23.00;99.90
26537;DHT22;14204;51.262;5.488;2023-07-16T11:45:14;23.10;99.90
26537;DHT22;14204;51.262;5.488;2023-07-16T11:47:40;22.90;99.90
26537;DHT22;14204;51.262;5.488;2023-07-16T11:50:06;23.00;99.90
26537;DHT22;14204;51.262;5.488;2023-07-16T11:52:32;23.00;99.90
26537;DHT22;14204;51.262;5.488;2023-07-16T11:54:59;22.90;99.90
26537;DHT22;14204;51.262;5.488;2023-07-16T11:57:30;22.90;99.90
26537;DHT22;14204;51.262;5.488;2023-07-16T11:59:56;22.80;99.90
26537;DHT22;14204;51.262;5.488;2023-07-16T12:02:22;22.80;99.90
26537;DHT22;14204;51.262;5.488;2023-07-16T12:04:48;22.90;99.90
26537;DHT22;14204;51.262;5.488;2023-07-16T12:07:14;22.90;99.90
26537;DHT22;14204;51.262;5.488;2023-07-16T12:09:40;22.90;99.90
26537;DHT22;14204;51.262;5.488;2023-07-16T12:12:06;23.00;99.90
26537;DHT22;14204;51.262;5.488;2023-07-16T12:14:32;23.20;99.90
26537;DHT22;14204;51.262;5.488;2023-07-16T12:16:58;23.30;99.90
26537;DHT22;14204;51.262;5.488;2023-07-16T12:19:24;23.40;99.90
26537;DHT22;14204;51.262;5.488;2023-07-16T12:21:50;23.50;99.90
26537;DHT22;14204;51.262;5.488;2023-07-16T12:24:16;23.50;99.90
26537;DHT22;14204;51.262;5.488;2023-07-16T12:26:42;23.70;99.90
26537;DHT22;14204;51.262;5.488;2023-07-16T12:29:08;23.90;99.90
26537;DHT22;14204;51.262;5.488;2023-07-16T12:31:34;23.90;99.90
26537;DHT22;14204;51.262;5.488;2023-07-16T12:34:00;24.30;99.90
26537;DHT22;14204;51.262;5.488;2023-07-16T12:36:29;24.40;99.90
26537;DHT22;14204;51.262;5.488;2023-07-16T12:38:55;24.50;99.90
26537;DHT22;14204;51.262;5.488;2023-07-16T12:41:21;24.50;99.90
26537;DHT22;14204;51.262;5.488;2023-07-16T12:43:47;24.60;99.90
26537;DHT22;14204;51.262;5.488;2023-07-16T12:46:13;24.50;99.90
26537;DHT22;14204;51.262;5.488;2023-07-16T12:48:38;24.70;99.90
26537;DHT22;14204;51.262;5.488;2023-07-16T12:51:04;24.80;99.90
26537;DHT22;14204;51.262;5.488;2023-07-16T12:53:30;25.20;99.90
26537;DHT22;14204;51.262;5.488;2023-07-16T12:55:55;25.30;99.90
26537;DHT22;14204;51.262;5.488;2023-07-16T12:58:22;25.50;99.90
26537;DHT22;14204;51.262;5.488;2023-07-16T13:00:48;25.30;99.90
26537;DHT22;14204;51.262;5.488;2023-07-16T13:03:14;25.40;99.90
26537;DHT22;14204;51.262;5.488;2023-07-16T13:05:42;25.30;99.90
26537;DHT22;14204;51.262;5.488;2023-07-16T13:08:09;25.40;99.90
26537;DHT22;14204;51.262;5.488;2023-07-16T13:10:35;25.60;99.90
26537;DHT22;14204;51.262;5.488;2023-07-16T13:13:00;25.70;99.90
26537;DHT22;14204;51.262;5.488;2023-07-16T13:15:26;25.40;99.90
26537;DHT22;14204;51.262;5.488;2023-07-16T13:17:52;25.20;99.90
26537;DHT22;14204;51.262;5.488;2023-07-16T13:20:18;25.50;99.90
26537;DHT22;14204;51.262;5.488;2023-07-16T13:22:45;25.60;99.90
26537;DHT22;14204;51.262;5.488;2023-07-16T13:25:11;25.90;99.90
26537;DHT22;14204;51.262;5.488;2023-07-16T13:27:37;25.80;99.90
26537;DHT22;14204;51.262;5.488;2023-07-16T13:30:02;26.00;99.90
26537;DHT22;14204;51.262;5.488;2023-07-16T13:32:28;26.20;99.90
26537;DHT22;14204;51.262;5.488;2023-07-16T13:34:54;26.00;99.90
26537;DHT22;14204;51.262;5.488;2023-07-16T13:37:20;25.90;99.90
26537;DHT22;14204;51.262;5.488;2023-07-16T13:39:45;25.90;99.90
26537;DHT22;14204;51.262;5.488;2023-07-16T13:42:11;25.80;99.90
26537;DHT22;14204;51.262;5.488;2023-07-16T13:44:37;25.70;99.90
26537;DHT22;14204;51.262;5.488;2023-07-16T13:47:03;25.70;99.90
26537;DHT22;14204;51.262;5.488;2023-07-16T13:49:29;25.60;99.90
26537;DHT22;14204;51.262;5.488;2023-07-16T13:51:55;25.70;99.90
26537;DHT22;14204;51.262;5.488;2023-07-16T13:54:21;25.70;99.90
26537;DHT22;14204;51.262;5.488;2023-07-16T13:56:47;25.70;99.90
26537;DHT22;14204;51.262;5.488;2023-07-16T13:59:13;25.80;99.90
26537;DHT22;14204;51.262;5.488;2023-07-16T14:01:40;25.80;99.90
26537;DHT22;14204;51.262;5.488;2023-07-16T14:04:06;25.80;99.90
26537;DHT22;14204;51.262;5.488;2023-07-16T14:06:32;26.10;99.90
26537;DHT22;14204;51.262;5.488;2023-07-16T14:08:58;26.00;99.90
26537;DHT22;14204;51.262;5.488;2023-07-16T14:11:24;25.90;99.90
26537;DHT22;14204;51.262;5.488;2023-07-16T14:13:50;26.00;99.90
26537;DHT22;14204;51.262;5.488;2023-07-16T14:16:20;26.20;99.90
26537;DHT22;14204;51.262;5.488;2023-07-16T14:18:53;26.20;99.90
26537;DHT22;14204;51.262;5.488;2023-07-16T14:21:20;26.30;99.90
26537;DHT22;14204;51.262;5.488;2023-07-16T14:23:46;26.10;99.90
26537;DHT22;14204;51.262;5.488;2023-07-16T14:26:12;25.80;99.90
26537;DHT22;14204;51.262;5.488;2023-07-16T14:28:37;25.80;99.90
26537;DHT22;14204;51.262;5.488;2023-07-16T14:31:03;25.90;99.90
26537;DHT22;14204;51.262;5.488;2023-07-16T14:33:29;25.90;99.90
26537;DHT22;14204;51.262;5.488;2023-07-16T14:35:56;26.00;99.90
26537;DHT22;14204;51.262;5.488;2023-07-16T14:38:21;26.10;99.90
26537;DHT22;14204;51.262;5.488;2023-07-16T14:40:47;25.90;99.90
26537;DHT22;14204;51.262;5.488;2023-07-16T14:43:13;25.90;99.90
26537;DHT22;14204;51.262;5.488;2023-07-16T14:45:39;25.70;99.90
26537;DHT22;14204;51.262;5.488;2023-07-16T14:48:05;25.80;99.90
26537;DHT22;14204;51.262;5.488;2023-07-16T14:50:31;25.70;99.90
26537;DHT22;14204;51.262;5.488;2023-07-16T14:52:57;25.70;99.90
26537;DHT22;14204;51.262;5.488;2023-07-16T14:55:22;25.80;99.90
26537;DHT22;14204;51.262;5.488;2023-07-16T14:57:48;26.00;99.90
26537;DHT22;14204;51.262;5.488;2023-07-16T15:00:14;26.00;99.90
26537;DHT22;14204;51.262;5.488;2023-07-16T15:02:41;25.90;99.90
26537;DHT22;14204;51.262;5.488;2023-07-16T15:05:07;25.80;99.90
26537;DHT22;14204;51.262;5.488;2023-07-16T15:07:35;25.70;99.90
26537;DHT22;14204;51.262;5.488;2023-07-16T15:10:04;25.60;99.90
26537;DHT22;14204;51.262;5.488;2023-07-16T15:12:31;25.50;99.90
26537;DHT22;14204;51.262;5.488;2023-07-16T15:14:57;25.50;99.90
26537;DHT22;14204;51.262;5.488;2023-07-16T15:17:22;25.40;99.90
26537;DHT22;14204;51.262;5.488;2023-07-16T15:19:49;25.40;99.90
26537;DHT22;14204;51.262;5.488;2023-07-16T15:22:15;25.40;99.90
26537;DHT22;14204;51.262;5.488;2023-07-16T15:24:46;25.30;99.90
26537;DHT22;14204;51.262;5.488;2023-07-16T15:27:12;25.30;99.90
26537;DHT22;14204;51.262;5.488;2023-07-16T15:29:38;25.30;99.90
26537;DHT22;14204;51.262;5.488;2023-07-16T15:32:05;25.20;99.90
26537;DHT22;14204;51.262;5.488;2023-07-16T15:34:31;25.00;99.90